Nederlandse vliegveldverwachtingen (TAF)

Luchtvaartmeteorologische informatie voor operationeel gebruik en vluchtvoorbereiding is beschikbaar op www.luchtvaartmeteo.nl.

ZCZC
FC200500 EHGR     GILZE-RIJEN/GILZE-RIJEN   NLD   14 m.
TAF EHGR 200431Z 2005/2017 31003KT CAVOK
    BECMG 2007/2009 35006KT=

ZCZC
FC200500 EHKD     DE KOOY/DE KOOY   NLD   1 m.
TAF EHKD 200424Z 2005/2017 06010KT CAVOK=

ZCZC
FC200500 EHLW     LEEUWARDEN/LEEUWARDEN   NLD   1 m.
TAF EHLW 200418Z 2005/2017 05008KT CAVOK=

ZCZC
FC200500 EHVK     VOLKEL/VOLKEL   NLD   21 m.
TAF EHVK 200435Z 2005/2017 34004KT CAVOK
    BECMG 2006/2009 30004KT=

ZCZC
FC200500 EHWO     WOENSDRECHT/WOENSDRECHT   NLD   19 m.
TAF EHWO 200427Z 2005/2017 VRB02KT CAVOK
    BECMG 2007/2009 02006KT=

ZCZC
FT200500 EHAM     AMSTERDAM/SCHIPHOL   NLD   -3 m.
TAF EHAM 200437Z 2006/2112 02005KT CAVOK=

ZCZC
FT200500 EHBK     MAASTRICHT/MAASTRICHT-AACHEN   NLD   114 m.
TAF EHBK 200417Z 2006/2112 35005KT CAVOK=

ZCZC
FT200500 EHGG     GRONINGEN/EELDE   NLD   5 m.
TAF EHGG 200417Z 2006/2112 05007KT CAVOK=

ZCZC
FT200500 EHRD     ROTTERDAM/THE HAGUE AIRPORT   NLD   -5 m.
TAF EHRD 200439Z 2006/2112 02005KT CAVOK=

ZCZC
FT200500 EHEH     EINDHOVEN/EINDHOVEN   NLD   22 m.
TAF EHEH 200521Z 2006/2112 VRB03KT CAVOK
    BECMG 2006/2009 30004KT
    PROB30 2022/2106 SCT060CB BKN070=

20/07/2018 08.15 uur LT